createdAt,value
2018-08-25T00:00:48.039Z,8.30
2018-08-25T00:03:23.560Z,8.67
2018-08-25T00:06:01.786Z,9.00
2018-08-25T00:08:37.977Z,7.90
2018-08-25T00:11:12.809Z,8.23
2018-08-25T00:13:47.751Z,9.17
2018-08-25T00:16:22.628Z,8.70
2018-08-25T00:18:57.501Z,8.03
2018-08-25T00:21:33.473Z,7.87
2018-08-25T00:24:08.251Z,8.70
2018-08-25T00:26:43.476Z,7.90
2018-08-25T00:29:18.418Z,7.87
2018-08-25T00:31:53.477Z,7.97
2018-08-25T00:34:28.437Z,8.63
2018-08-25T00:37:03.280Z,8.23
2018-08-25T00:39:38.474Z,8.73
2018-08-25T00:42:14.233Z,8.47
2018-08-25T00:44:49.661Z,7.73
2018-08-25T00:47:24.773Z,7.93
2018-08-25T00:50:00.376Z,8.30
2018-08-25T00:52:36.211Z,8.03
2018-08-25T00:55:11.561Z,7.67
2018-08-25T00:57:46.202Z,8.43
2018-08-25T01:00:21.194Z,9.53
2018-08-25T01:02:56.135Z,8.80
2018-08-25T01:05:31.822Z,8.60
2018-08-25T01:08:07.590Z,8.60
2018-08-25T01:10:42.302Z,8.57
2018-08-25T01:13:17.200Z,9.13
2018-08-25T01:15:52.282Z,9.40
2018-08-25T01:18:27.260Z,9.00
2018-08-25T01:21:02.060Z,8.30
2018-08-25T01:23:36.993Z,8.60
2018-08-25T01:26:11.730Z,7.73
2018-08-25T01:28:46.539Z,7.60
2018-08-25T01:31:21.531Z,8.60
2018-08-25T01:33:57.982Z,8.07
2018-08-25T01:36:33.574Z,8.20
2018-08-25T01:39:09.521Z,8.27
2018-08-25T01:41:44.223Z,8.60
2018-08-25T01:44:19.049Z,8.77
2018-08-25T01:46:53.821Z,7.93
2018-08-25T01:49:28.498Z,7.90
2018-08-25T01:52:03.978Z,8.73
2018-08-25T01:54:38.870Z,7.77
2018-08-25T01:57:13.731Z,8.63
2018-08-25T01:59:48.658Z,7.97
2018-08-25T02:02:23.575Z,8.33
2018-08-25T02:04:58.221Z,8.03
2018-08-25T02:07:34.511Z,8.47
2018-08-25T02:10:09.107Z,8.23
2018-08-25T02:12:43.800Z,8.93
2018-08-25T02:15:18.603Z,8.43
2018-08-25T02:17:53.744Z,8.07
2018-08-25T02:20:28.554Z,8.10
2018-08-25T02:23:03.470Z,7.93
2018-08-25T02:25:38.490Z,7.90
2018-08-25T02:28:13.189Z,7.60
2018-08-25T02:30:48.160Z,7.50
2018-08-25T02:33:23.047Z,8.27
2018-08-25T02:35:57.872Z,7.90
2018-08-25T02:38:32.839Z,7.57
2018-08-25T02:41:08.083Z,7.60
2018-08-25T02:43:43.663Z,7.87
2018-08-25T02:46:18.388Z,6.87
2018-08-25T02:48:53.251Z,8.27
2018-08-25T02:51:28.509Z,8.20
2018-08-25T02:54:03.463Z,7.23
2018-08-25T02:56:38.682Z,6.80
2018-08-25T02:59:13.542Z,7.50
2018-08-25T03:01:48.491Z,7.23
2018-08-25T03:04:23.352Z,7.03
2018-08-25T03:06:58.243Z,7.23
2018-08-25T03:09:33.276Z,7.63
2018-08-25T03:12:07.976Z,7.47
2018-08-25T03:14:42.951Z,7.53
2018-08-25T03:17:17.835Z,7.57
2018-08-25T03:19:53.196Z,6.73
2018-08-25T03:22:28.636Z,7.80
2018-08-25T03:25:03.399Z,6.70
2018-08-25T03:27:38.290Z,7.23
2018-08-25T03:30:13.076Z,6.73
2018-08-25T03:32:47.884Z,6.90
2018-08-25T03:35:22.789Z,6.70
2018-08-25T03:37:57.711Z,6.57
2018-08-25T03:40:32.607Z,7.07
2018-08-25T03:43:08.319Z,7.37
2018-08-25T03:45:43.114Z,7.87
2018-08-25T03:48:18.189Z,7.80
2018-08-25T03:50:53.044Z,7.03
2018-08-25T03:53:27.863Z,7.00
2018-08-25T03:56:02.752Z,6.57
2018-08-25T03:58:37.595Z,6.47
2018-08-25T04:01:12.410Z,6.23
2018-08-25T04:03:47.301Z,7.07
2018-08-25T04:06:22.745Z,7.17
2018-08-25T04:08:57.606Z,6.70
2018-08-25T04:11:32.537Z,7.00
2018-08-25T04:14:08.642Z,6.37
2018-08-25T04:16:43.368Z,6.43
2018-08-25T04:19:20.865Z,5.93
2018-08-25T04:21:55.731Z,6.07
2018-08-25T04:24:31.363Z,6.47
2018-08-25T04:27:06.533Z,6.10
2018-08-25T04:29:41.609Z,5.60
2018-08-25T04:32:17.097Z,6.30
2018-08-25T04:34:52.545Z,6.20
2018-08-25T04:37:27.544Z,6.37
2018-08-25T04:40:02.692Z,5.73
2018-08-25T04:42:37.625Z,6.40
2018-08-25T04:45:12.379Z,5.83
2018-08-25T04:47:49.257Z,6.03
2018-08-25T04:50:23.880Z,5.77
2018-08-25T04:52:58.743Z,5.80
2018-08-25T04:55:33.515Z,5.70
2018-08-25T04:58:08.263Z,5.67
2018-08-25T05:00:43.369Z,6.03
2018-08-25T05:03:18.097Z,5.90
2018-08-25T05:05:53.078Z,5.43
2018-08-25T05:08:27.833Z,5.20
2018-08-25T05:11:02.697Z,5.40
2018-08-25T05:13:37.666Z,5.20
2018-08-25T05:16:13.031Z,4.00
2018-08-25T05:18:47.930Z,4.70
2018-08-25T05:21:23.275Z,3.77
2018-08-25T05:23:58.036Z,3.83
2018-08-25T05:26:33.986Z,3.53
2018-08-25T05:29:09.149Z,3.53
2018-08-25T05:31:44.020Z,3.70
2018-08-25T05:34:18.623Z,3.57
2018-08-25T05:36:53.652Z,3.30
2018-08-25T05:39:28.412Z,3.63
2018-08-25T05:42:03.598Z,3.50
2018-08-25T05:44:38.683Z,3.60
2018-08-25T05:47:13.777Z,3.43
2018-08-25T05:49:48.710Z,3.20
2018-08-25T05:52:29.983Z,3.77
2018-08-25T05:55:05.294Z,3.10
2018-08-25T05:57:40.161Z,3.10
2018-08-25T06:00:15.202Z,3.53
2018-08-25T06:02:50.901Z,3.50
2018-08-25T06:05:25.702Z,3.30
2018-08-25T06:08:00.882Z,3.03
2018-08-25T06:10:35.516Z,3.37
2018-08-25T06:13:10.596Z,3.10
2018-08-25T06:15:45.485Z,3.30
2018-08-25T06:18:20.222Z,4.77
2018-08-25T06:20:55.570Z,3.17
2018-08-25T06:23:30.402Z,3.63
2018-08-25T06:26:05.748Z,3.43
2018-08-25T06:28:40.643Z,3.27
2018-08-25T06:31:15.602Z,3.10
2018-08-25T06:33:50.743Z,3.17
2018-08-25T06:36:25.953Z,2.90
2018-08-25T06:39:00.908Z,3.87
2018-08-25T06:41:35.852Z,3.47
2018-08-25T06:44:10.768Z,2.97
2018-08-25T06:46:45.789Z,3.50
2018-08-25T06:49:20.494Z,3.40
2018-08-25T06:51:55.550Z,3.10
2018-08-25T06:54:30.354Z,3.07
2018-08-25T06:57:05.584Z,3.40
2018-08-25T06:59:40.650Z,3.30
2018-08-25T07:02:15.722Z,3.00
2018-08-25T07:04:50.758Z,2.87
2018-08-25T07:07:25.666Z,3.47
2018-08-25T07:10:00.420Z,3.37
2018-08-25T07:12:35.412Z,3.10
2018-08-25T07:15:10.930Z,2.80
2018-08-25T07:17:46.136Z,3.27
2018-08-25T07:20:20.775Z,3.00
2018-08-25T07:22:55.803Z,3.30
2018-08-25T07:25:30.524Z,3.07
2018-08-25T07:28:05.516Z,2.83
2018-08-25T07:30:40.550Z,2.87
2018-08-25T07:33:15.628Z,3.53
2018-08-25T07:35:50.582Z,3.10
2018-08-25T07:38:26.121Z,3.17
2018-08-25T07:41:01.788Z,3.77
2018-08-25T07:43:37.305Z,3.43
2018-08-25T07:46:12.119Z,3.10
2018-08-25T07:48:47.727Z,3.30
2018-08-25T07:51:23.271Z,3.00
2018-08-25T07:53:58.351Z,3.30
2018-08-25T07:56:33.454Z,3.43
2018-08-25T07:59:08.538Z,3.47
2018-08-25T08:01:43.415Z,3.10
2018-08-25T08:04:18.334Z,3.37
2018-08-25T08:06:53.403Z,3.30
2018-08-25T08:09:28.221Z,3.50
2018-08-25T08:12:03.398Z,3.30
2018-08-25T08:14:38.665Z,3.00
2018-08-25T08:17:13.547Z,2.63
2018-08-25T08:19:48.241Z,3.27
2018-08-25T08:22:23.563Z,2.83
2018-08-25T08:24:58.354Z,2.53
2018-08-25T08:27:33.029Z,2.93
2018-08-25T08:30:07.909Z,2.90
2018-08-25T08:32:42.657Z,2.77
2018-08-25T08:35:17.355Z,2.70
2018-08-25T08:37:52.084Z,2.93
2018-08-25T08:40:26.923Z,2.77
2018-08-25T08:43:02.183Z,2.90
2018-08-25T08:45:36.917Z,2.90
2018-08-25T08:48:11.771Z,2.77
2018-08-25T08:50:46.670Z,3.00
2018-08-25T08:53:21.483Z,2.87
2018-08-25T08:55:56.609Z,2.60
2018-08-25T08:58:31.741Z,3.20
2018-08-25T09:01:06.606Z,3.00
2018-08-25T09:03:41.517Z,3.10
2018-08-25T09:06:16.334Z,2.83
2018-08-25T09:08:51.311Z,2.83
2018-08-25T09:11:26.090Z,2.53
2018-08-25T09:14:00.971Z,2.60
2018-08-25T09:16:35.759Z,2.70
2018-08-25T09:19:10.712Z,2.70
2018-08-25T09:21:45.547Z,2.63
2018-08-25T09:24:20.466Z,2.77
2018-08-25T09:26:55.158Z,2.47
2018-08-25T09:29:30.104Z,2.93
2018-08-25T09:32:05.334Z,2.30
2018-08-25T09:34:40.080Z,2.73
2018-08-25T09:37:14.954Z,2.70
2018-08-25T09:39:50.272Z,2.63
2018-08-25T09:42:24.955Z,2.80
2018-08-25T09:45:00.207Z,2.60
2018-08-25T09:47:35.333Z,3.50
2018-08-25T09:50:10.765Z,2.50
2018-08-25T09:52:45.604Z,2.60
2018-08-25T09:55:20.522Z,2.70
2018-08-25T09:57:56.168Z,2.83
2018-08-25T10:00:31.247Z,2.70
2018-08-25T10:03:06.021Z,3.37
2018-08-25T10:05:42.174Z,2.90
2018-08-25T10:08:16.789Z,3.20
2018-08-25T10:10:51.797Z,2.77
2018-08-25T10:13:26.876Z,3.63
2018-08-25T10:16:01.851Z,3.50
2018-08-25T10:18:36.723Z,3.37
2018-08-25T10:21:11.669Z,3.37
2018-08-25T10:23:46.543Z,3.13
2018-08-25T10:26:21.249Z,3.80
2018-08-25T10:28:56.102Z,4.07
2018-08-25T10:31:33.563Z,4.17
2018-08-25T10:34:08.448Z,4.40
2018-08-25T10:36:43.099Z,3.60
2018-08-25T10:39:18.923Z,3.80
2018-08-25T10:41:53.748Z,3.30
2018-08-25T10:44:28.712Z,3.50
2018-08-25T10:47:03.613Z,3.67
2018-08-25T10:49:38.374Z,3.33
2018-08-25T10:52:13.410Z,3.57
2018-08-25T10:54:48.146Z,3.60
2018-08-25T10:57:23.017Z,3.27
2018-08-25T10:59:58.078Z,3.10
2018-08-25T11:02:32.995Z,3.60
2018-08-25T11:05:07.971Z,3.20
2018-08-25T11:07:42.843Z,3.20
2018-08-25T11:10:17.780Z,3.10
2018-08-25T11:12:52.625Z,2.70
2018-08-25T11:15:27.636Z,2.50
2018-08-25T11:18:03.015Z,2.97
2018-08-25T11:20:38.321Z,2.77
2018-08-25T11:23:13.365Z,2.93
2018-08-25T11:25:48.475Z,2.33
2018-08-25T11:28:23.589Z,1.90
2018-08-25T11:30:58.499Z,2.47
2018-08-25T11:33:34.161Z,3.10
2018-08-25T11:36:09.015Z,2.23
2018-08-25T11:38:43.857Z,2.27
2018-08-25T11:41:18.818Z,2.43
2018-08-25T11:43:53.692Z,2.30
2018-08-25T11:46:28.936Z,2.27
2018-08-25T11:49:03.830Z,2.33
2018-08-25T11:51:38.531Z,2.37
2018-08-25T11:54:14.120Z,2.30
2018-08-25T11:56:48.904Z,2.37
2018-08-25T11:59:23.987Z,2.43
2018-08-25T12:01:59.028Z,2.20
2018-08-25T12:04:34.037Z,2.10
2018-08-25T12:07:09.358Z,2.20
2018-08-25T12:09:44.470Z,2.37
2018-08-25T12:12:19.321Z,2.13
2018-08-25T12:14:54.226Z,2.30
2018-08-25T12:17:29.355Z,1.83
2018-08-25T12:20:04.455Z,2.10
2018-08-25T12:22:39.316Z,1.93
2018-08-25T12:25:14.258Z,2.40
2018-08-25T12:27:49.043Z,1.80
2018-08-25T12:30:23.804Z,1.70
2018-08-25T12:32:58.585Z,1.70
2018-08-25T12:35:33.668Z,1.67
2018-08-25T12:38:08.525Z,1.97
2018-08-25T12:40:44.265Z,1.87
2018-08-25T12:43:19.355Z,1.80
2018-08-25T12:45:54.617Z,1.53
2018-08-25T12:48:29.752Z,1.60
2018-08-25T12:51:04.921Z,1.80
2018-08-25T12:53:40.814Z,1.90
2018-08-25T12:56:15.950Z,1.70
2018-08-25T12:58:50.559Z,1.70
2018-08-25T13:01:26.077Z,1.80
2018-08-25T13:04:01.003Z,1.60
2018-08-25T13:06:36.158Z,1.50
2018-08-25T13:09:12.232Z,1.53
2018-08-25T13:11:50.097Z,1.70
2018-08-25T13:14:25.073Z,1.43
2018-08-25T13:17:00.345Z,1.30
2018-08-25T13:19:35.169Z,1.53
2018-08-25T13:22:10.368Z,1.60
2018-08-25T13:24:45.150Z,1.67
2018-08-25T13:27:19.822Z,1.60
2018-08-25T13:29:54.649Z,1.70
2018-08-25T13:32:29.970Z,1.70
2018-08-25T13:35:05.001Z,1.77
2018-08-25T13:37:39.790Z,1.50
2018-08-25T13:40:14.770Z,1.80
2018-08-25T13:42:49.786Z,1.47
2018-08-25T13:45:24.642Z,1.50
2018-08-25T13:48:00.559Z,1.40
2018-08-25T13:50:35.439Z,1.50
2018-08-25T13:53:10.844Z,1.67
2018-08-25T13:55:45.659Z,1.43
2018-08-25T13:58:20.884Z,1.60
2018-08-25T14:00:55.867Z,1.53
2018-08-25T14:03:30.928Z,1.60
2018-08-25T14:06:05.885Z,1.70
2018-08-25T14:08:41.271Z,1.70
2018-08-25T14:11:16.008Z,1.80
2018-08-25T14:13:51.011Z,1.80
2018-08-25T14:16:26.086Z,1.77
2018-08-25T14:19:01.454Z,1.77
2018-08-25T14:21:36.383Z,1.73
2018-08-25T14:24:12.333Z,1.43
2018-08-25T14:26:47.350Z,1.37
2018-08-25T14:29:22.343Z,1.40
2018-08-25T14:31:57.885Z,1.70
2018-08-25T14:34:33.285Z,2.17
2018-08-25T14:37:08.096Z,1.83
2018-08-25T14:39:43.928Z,1.60
2018-08-25T14:42:18.900Z,1.93
2018-08-25T14:44:53.913Z,1.60
2018-08-25T14:47:28.695Z,1.80
2018-08-25T14:50:03.525Z,2.00
2018-08-25T14:52:38.960Z,1.90
2018-08-25T14:55:14.018Z,1.70
2018-08-25T14:57:48.773Z,2.00
2018-08-25T15:00:23.711Z,2.00
2018-08-25T15:02:59.113Z,2.30
2018-08-25T15:05:34.479Z,1.80
2018-08-25T15:08:09.114Z,2.37
2018-08-25T15:10:44.000Z,2.00
2018-08-25T15:13:18.870Z,2.13
2018-08-25T15:15:53.974Z,2.30
2018-08-25T15:18:29.213Z,1.90
2018-08-25T15:21:04.065Z,1.80
2018-08-25T15:23:39.603Z,1.90
2018-08-25T15:26:14.394Z,2.00
2018-08-25T15:28:49.260Z,2.30
2018-08-25T15:31:24.663Z,2.27
2018-08-25T15:33:59.652Z,1.90
2018-08-25T15:36:34.448Z,2.20
2018-08-25T15:39:12.080Z,2.20
2018-08-25T15:41:47.109Z,2.23
2018-08-25T15:44:22.052Z,2.10
2018-08-25T15:46:57.103Z,1.83
2018-08-25T15:49:32.091Z,1.70
2018-08-25T15:52:07.059Z,1.80
2018-08-25T15:54:42.043Z,1.90
2018-08-25T15:57:17.851Z,1.77
2018-08-25T15:59:53.583Z,1.63
2018-08-25T16:02:28.437Z,1.83
2018-08-25T16:05:03.711Z,1.73
2018-08-25T16:07:38.578Z,1.70
2018-08-25T16:10:13.667Z,1.90
2018-08-25T16:12:48.367Z,1.80
2018-08-25T16:15:23.365Z,1.70
2018-08-25T16:17:58.519Z,1.83
2018-08-25T16:20:33.360Z,2.13
2018-08-25T16:23:08.295Z,1.97
2018-08-25T16:25:43.108Z,2.07
2018-08-25T16:28:18.371Z,2.00
2018-08-25T16:30:53.072Z,2.27
2018-08-25T16:33:28.394Z,2.00
2018-08-25T16:36:03.604Z,1.87
2018-08-25T16:38:39.148Z,1.70
2018-08-25T16:41:14.098Z,1.80
2018-08-25T16:43:49.574Z,1.57
2018-08-25T16:46:24.597Z,2.00
2018-08-25T16:49:00.571Z,1.97
2018-08-25T16:51:35.297Z,1.77
2018-08-25T16:54:10.472Z,1.83
2018-08-25T16:56:45.270Z,2.00
2018-08-25T16:59:20.424Z,2.00
2018-08-25T17:01:55.725Z,2.10
2018-08-25T17:04:30.766Z,2.20
2018-08-25T17:07:05.855Z,2.00
2018-08-25T17:09:40.825Z,2.00
2018-08-25T17:12:15.708Z,2.10
2018-08-25T17:14:50.702Z,1.67
2018-08-25T17:17:25.727Z,1.70
2018-08-25T17:20:00.547Z,1.90
2018-08-25T17:22:35.320Z,1.80
2018-08-25T17:25:10.011Z,2.03
2018-08-25T17:27:44.899Z,1.80
2018-08-25T17:30:19.841Z,1.67
2018-08-25T17:32:54.691Z,1.83
2018-08-25T17:35:29.972Z,1.90
2018-08-25T17:38:05.704Z,1.57
2018-08-25T17:40:40.678Z,1.80
2018-08-25T17:43:15.759Z,2.20
2018-08-25T17:45:50.647Z,1.73
2018-08-25T17:48:25.510Z,1.80
2018-08-25T17:51:00.226Z,1.77
2018-08-25T17:53:35.357Z,1.83
2018-08-25T17:56:10.314Z,1.60
2018-08-25T17:58:45.392Z,1.80
2018-08-25T18:01:20.300Z,1.50
2018-08-25T18:03:55.344Z,1.83
2018-08-25T18:06:30.373Z,1.80
2018-08-25T18:09:07.499Z,1.90
2018-08-25T18:11:42.298Z,1.90
2018-08-25T18:14:17.498Z,1.67
2018-08-25T18:16:52.703Z,1.90
2018-08-25T18:19:34.017Z,1.80
2018-08-25T18:22:09.418Z,1.70
2018-08-25T18:24:44.537Z,1.90
2018-08-25T18:27:20.289Z,1.80
2018-08-25T18:29:55.632Z,1.70
2018-08-25T18:32:31.197Z,1.93
2018-08-25T18:35:06.318Z,1.93
2018-08-25T18:37:41.791Z,1.60
2018-08-25T18:40:17.324Z,2.17
2018-08-25T18:42:52.443Z,2.00
2018-08-25T18:45:27.437Z,2.10
2018-08-25T18:48:02.215Z,1.80
2018-08-25T18:50:37.665Z,2.17
2018-08-25T18:53:12.570Z,1.80
2018-08-25T18:55:48.102Z,1.63
2018-08-25T18:58:23.078Z,2.00
2018-08-25T19:00:58.195Z,2.00
2018-08-25T19:03:34.159Z,2.10
2018-08-25T19:06:09.466Z,1.77
2018-08-25T19:08:45.743Z,2.40
2018-08-25T19:11:21.556Z,2.20
2018-08-25T19:13:56.997Z,2.10
2018-08-25T19:16:32.599Z,2.40
2018-08-25T19:19:08.729Z,2.30
2018-08-25T19:21:45.047Z,2.30
2018-08-25T19:24:20.852Z,2.60
2018-08-25T19:26:56.790Z,2.17
2018-08-25T19:29:32.994Z,2.30
2018-08-25T19:32:08.359Z,2.77
2018-08-25T19:34:43.496Z,2.70
2018-08-25T19:37:19.145Z,2.63
2018-08-25T19:39:54.901Z,2.50
2018-08-25T19:42:30.342Z,2.50
2018-08-25T19:45:06.152Z,2.10
2018-08-25T19:47:42.263Z,2.93
2018-08-25T19:50:17.581Z,2.67
2018-08-25T19:52:52.987Z,3.10
2018-08-25T19:55:28.177Z,2.70
2018-08-25T19:58:03.311Z,3.00
2018-08-25T20:00:38.474Z,3.30
2018-08-25T20:03:13.896Z,3.10
2018-08-25T20:08:09.749Z,3.20
2018-08-25T20:10:45.152Z,3.03
2018-08-25T20:13:20.417Z,3.30
2018-08-25T20:15:55.362Z,3.10
2018-08-25T20:18:31.074Z,3.60
2018-08-25T20:21:06.215Z,3.07
2018-08-25T20:23:41.988Z,3.67
2018-08-25T20:26:17.556Z,3.07
2018-08-25T20:28:52.984Z,3.13
2018-08-25T20:31:29.782Z,3.53
2018-08-25T20:34:05.254Z,3.57
2018-08-25T20:36:40.757Z,3.20
2018-08-25T20:39:16.629Z,3.37
2018-08-25T20:41:51.835Z,3.60
2018-08-25T20:44:27.392Z,3.47
2018-08-25T20:47:02.772Z,3.90
2018-08-25T20:49:37.547Z,3.23
2018-08-25T20:52:12.619Z,2.93
2018-08-25T20:54:47.595Z,3.10
2018-08-25T20:57:23.097Z,2.93
2018-08-25T20:59:58.017Z,3.70
2018-08-25T21:02:32.999Z,3.70
2018-08-25T21:05:08.362Z,3.37
2018-08-25T21:07:43.546Z,3.83
2018-08-25T21:10:25.283Z,3.20
2018-08-25T21:13:00.293Z,3.40
2018-08-25T21:15:35.449Z,3.30
2018-08-25T21:18:10.467Z,3.20
2018-08-25T21:20:46.117Z,3.40
2018-08-25T21:23:21.009Z,3.90
2018-08-25T21:25:56.174Z,3.60
2018-08-25T21:28:30.765Z,4.03
2018-08-25T21:31:06.058Z,3.83
2018-08-25T21:33:40.988Z,4.27
2018-08-25T21:36:15.902Z,4.07
2018-08-25T21:38:50.789Z,3.70
2018-08-25T21:41:26.257Z,4.00
2018-08-25T21:44:01.289Z,3.73
2018-08-25T21:46:36.319Z,4.03
2018-08-25T21:49:11.938Z,4.27
2018-08-25T21:51:46.831Z,3.20
2018-08-25T21:54:29.046Z,3.70
2018-08-25T21:57:03.966Z,3.87
2018-08-25T21:59:39.746Z,3.40
2018-08-25T22:02:18.410Z,3.80
2018-08-25T22:04:53.343Z,4.40
2018-08-25T22:07:27.945Z,4.40
2018-08-25T22:10:02.754Z,3.90
2018-08-25T22:12:38.486Z,4.03
2018-08-25T22:15:13.169Z,4.50
2018-08-25T22:17:48.174Z,3.77
2018-08-25T22:20:23.433Z,3.97
2018-08-25T22:23:04.761Z,4.07
2018-08-25T22:25:39.589Z,4.80
2018-08-25T22:28:14.590Z,4.50
2018-08-25T22:30:49.408Z,4.30
2018-08-25T22:33:24.321Z,4.57
2018-08-25T22:35:59.391Z,3.67
2018-08-25T22:38:34.242Z,3.80
2018-08-25T22:41:09.151Z,4.10
2018-08-25T22:43:44.275Z,4.10
2018-08-25T22:46:19.759Z,3.17
2018-08-25T22:48:54.650Z,3.43
2018-08-25T22:51:29.884Z,3.90
2018-08-25T22:54:05.098Z,4.30
2018-08-25T22:56:40.048Z,4.73
2018-08-25T22:59:14.926Z,3.93
2018-08-25T23:01:49.987Z,4.30
2018-08-25T23:04:25.022Z,4.37
2018-08-25T23:06:59.831Z,4.13
2018-08-25T23:09:34.892Z,3.57
2018-08-25T23:12:09.527Z,3.87
2018-08-25T23:14:44.462Z,4.30
2018-08-25T23:17:19.353Z,4.00
2018-08-25T23:19:54.197Z,3.70
2018-08-25T23:22:28.952Z,3.57
2018-08-25T23:25:03.736Z,3.53
2018-08-25T23:27:38.693Z,3.70
2018-08-25T23:30:13.519Z,3.70
2018-08-25T23:32:49.132Z,4.47
2018-08-25T23:35:24.108Z,3.80
2018-08-25T23:37:58.988Z,4.23
2018-08-25T23:40:33.991Z,3.87
2018-08-25T23:43:08.805Z,3.60
2018-08-25T23:45:44.289Z,4.00
2018-08-25T23:48:19.360Z,3.90
2018-08-25T23:50:54.261Z,4.03
2018-08-25T23:53:28.998Z,4.13
2018-08-25T23:56:04.199Z,3.30
2018-08-25T23:58:39.093Z,3.40
